Strona główna
METAR-TAF:

METAR-TAF

Lotnisko :

Weipa, Australia

Szerokość geograficzna: 12-40-43S, Długość geograficzna: 141-55-31E, wysokość: 19 m

Aktualna obserwacja pogody

Raport powstał 19 minut temu, godzina 23:00 UTC
Wiatr 5 kt od wschodnio-północny wschód
Temperatura 27°C
Wilgotność 84%
Ciśnienie 1011 hPa
Widzialność 10 km lub więcej
Rozproszone chmury na wysokości 9500 ft
Zachmurzenie całkowite na wysokości 11000 ft

METAR: YBWP 102300Z AUTO 06005KT 9999 // SCT095 OVC110 27/24 Q1011

czas: 09:19 (23:19 UTC)


TAF: brakujący

Obserwacja i prognoza pogody dla ponad 4000 lotnisk (raport METAR i TAF).

Dostępne stacje oznaczono żółtymi i czerwonymi punktami na mapie.

Najedź kursorem aby zobaczyć nazwę stacji.

Kliknij aby zobaczyć obserwacje i prognozy pogody.

Aby zmienić mapę: kliknij na zielony przycisk z czarnym krzyżykiem, aby powiększyć; na zielony przycisk z myślnikiem, aby pomniejszyć; na zielone strzałki, aby przejść do map sąsiednich.


METAR-TAF: